This is the latest recevied weather packets stored in our database for station/object W5ADC. If no packets are shown the sender has not sent any weather packets the latest 10 day(s).
| Time | Temp. | Humidity | Pressure | Rain* | Wind** | Luminosity | Snow |
|---|---|---|---|---|---|---|---|
| 1777830657 | 26.11° C | 40% | 1016.3 hPa | 0 mm | - | 790 W/m² | - |
| 1777830354 | 26.11° C | 41% | 1016.7 hPa | 0 mm | - | 794 W/m² | - |
| 1777830050 | 26.11° C | 40% | 1016.8 hPa | 0 mm | - | 787 W/m² | - |
| 1777829745 | 25.56° C | 42% | 1016.9 hPa | 0 mm | - | 787 W/m² | - |
| 1777829442 | 25.56° C | 43% | 1017 hPa | 0 mm | - | 787 W/m² | - |
| 1777829139 | 25.56° C | 43% | 1016.9 hPa | 0 mm | - | 780 W/m² | - |
| 1777828836 | 25.56° C | 43% | 1017 hPa | 0 mm | - | 774 W/m² | - |
| 1777828533 | 25.56° C | 43% | 1017 hPa | 0 mm | - | 768 W/m² | - |
| 1777828230 | 25° C | 44% | 1017.2 hPa | 0 mm | - | 761 W/m² | - |
| 1777827926 | 25.56° C | 44% | 1017.2 hPa | 0 mm | - | 754 W/m² | - |
| 1777827624 | 24.44° C | 45% | 1017.4 hPa | 0 mm | - | 745 W/m² | - |
| 1777827321 | 25° C | 45% | 1017.3 hPa | 0 mm | - | 737 W/m² | - |
| 1777827017 | 25° C | 44% | 1017.4 hPa | 0 mm | - | 729 W/m² | - |
| 1777826715 | 25.56° C | 44% | 1017.3 hPa | 0 mm | - | 720 W/m² | - |
| 1777826411 | 25° C | 45% | 1017.3 hPa | 0 mm | - | 709 W/m² | - |
| 1777826109 | 24.44° C | 46% | 1017.4 hPa | 0 mm | - | 701 W/m² | - |
| 1777825805 | 24.44° C | 45% | 1017.4 hPa | 0 mm | - | 691 W/m² | - |
| 1777825503 | 23.89° C | 46% | 1017.6 hPa | 0 mm | - | 682 W/m² | - |
| 1777825200 | 23.89° C | 46% | 1017.5 hPa | 0 mm | - | 669 W/m² | - |
| 1777824896 | 23.89° C | 46% | 1017.6 hPa | 0 mm | - | 658 W/m² | - |
| 1777824593 | 23.89° C | 45% | 1017.5 hPa | 0 mm | - | 648 W/m² | - |
| 1777824290 | 23.33° C | 47% | 1017.6 hPa | 0 mm | - | 631 W/m² | - |
| 1777823985 | 23.89° C | 47% | 1017.6 hPa | 0 mm | - | 620 W/m² | - |
| 1777823682 | 23.89° C | 47% | 1017.5 hPa | 0 mm | - | 608 W/m² | - |
| 1777823379 | 23.33° C | 47% | 1017.6 hPa | 0 mm | - | 593 W/m² | - |
* Rain latest hour (hover to see other rain measurements)
** Current wind speed in m/s (hover to see current wind gust speed)